createdAt,value
2017-08-06T00:00:10.824Z,90.3
2017-08-06T00:00:51.933Z,90.0
2017-08-06T00:01:33.036Z,90.0
2017-08-06T00:02:14.129Z,90.1
2017-08-06T00:02:55.124Z,89.5
2017-08-06T00:03:36.230Z,90.1
2017-08-06T00:04:17.433Z,90.1
2017-08-06T00:04:58.645Z,90.3
2017-08-06T00:05:39.647Z,89.6
2017-08-06T00:06:20.758Z,89.4
2017-08-06T00:07:01.765Z,89.4
2017-08-06T00:07:42.872Z,90.8
2017-08-06T00:08:23.877Z,90.0
2017-08-06T00:09:05.082Z,89.7
2017-08-06T00:09:46.292Z,89.6
2017-08-06T00:10:27.391Z,89.2
2017-08-06T00:11:08.496Z,89.4
2017-08-06T00:11:49.599Z,89.3
2017-08-06T00:12:30.801Z,89.0
2017-08-06T00:13:11.912Z,89.3
2017-08-06T00:13:53.009Z,89.5
2017-08-06T00:14:34.016Z,89.3
2017-08-06T00:15:15.121Z,89.7
2017-08-06T00:15:56.232Z,88.9
2017-08-06T00:16:37.332Z,89.2
2017-08-06T00:17:18.542Z,89.9
2017-08-06T00:17:59.754Z,89.9
2017-08-06T00:18:40.660Z,89.8
2017-08-06T00:19:21.663Z,89.2
2017-08-06T00:20:02.864Z,89.6
2017-08-06T00:20:43.965Z,89.5
2017-08-06T00:21:25.172Z,89.1
2017-08-06T00:22:06.279Z,89.2
2017-08-06T00:22:47.389Z,88.6
2017-08-06T00:23:28.603Z,89.3
2017-08-06T00:24:09.817Z,89.0
2017-08-06T00:24:50.821Z,88.9
2017-08-06T00:25:31.822Z,88.9
2017-08-06T00:26:12.931Z,89.2
2017-08-06T00:26:54.039Z,89.2
2017-08-06T00:27:35.138Z,88.9
2017-08-06T00:28:16.244Z,88.9
2017-08-06T00:28:57.356Z,88.9
2017-08-06T00:29:38.555Z,89.0
2017-08-06T00:30:19.572Z,89.9
2017-08-06T00:31:00.671Z,89.8
2017-08-06T00:31:41.774Z,89.9
2017-08-06T00:32:22.883Z,89.5
2017-08-06T00:33:03.982Z,89.4
2017-08-06T00:33:45.196Z,90.4
2017-08-06T00:34:26.399Z,90.0
2017-08-06T00:35:07.502Z,89.9
2017-08-06T00:35:48.609Z,90.1
2017-08-06T00:36:29.815Z,90.3
2017-08-06T00:37:10.917Z,90.1
2017-08-06T00:37:52.025Z,90.0
2017-08-06T00:38:33.230Z,90.3
2017-08-06T00:39:14.232Z,89.4
2017-08-06T00:39:55.437Z,90.1
2017-08-06T00:40:36.436Z,90.3
2017-08-06T00:41:17.532Z,90.8
2017-08-06T00:41:58.631Z,91.2
2017-08-06T00:42:39.737Z,90.8
2017-08-06T00:43:20.740Z,90.2
2017-08-06T00:44:01.940Z,90.8
2017-08-06T00:44:42.944Z,90.6
2017-08-06T00:45:24.048Z,89.8
2017-08-06T00:46:05.151Z,90.4
2017-08-06T00:46:46.157Z,90.2
2017-08-06T00:47:27.163Z,89.8
2017-08-06T00:48:08.473Z,90.6
2017-08-06T00:48:51.015Z,91.0
2017-08-06T00:49:38.366Z,90.9
2017-08-06T00:50:21.199Z,90.7
2017-08-06T00:51:03.630Z,91.0
2017-08-06T00:52:02.505Z,91.0
2017-08-06T00:52:46.556Z,90.8
2017-08-06T00:53:29.316Z,90.9
2017-08-06T00:54:15.252Z,90.4
2017-08-06T00:55:02.609Z,90.4
2017-08-06T00:55:46.647Z,90.2
2017-08-06T00:56:32.212Z,90.1
2017-08-06T00:57:17.608Z,90.0
2017-08-06T00:58:19.932Z,90.5
2017-08-06T00:59:12.404Z,90.3
2017-08-06T00:59:55.816Z,90.4
2017-08-06T01:00:38.661Z,91.2
2017-08-06T01:01:23.005Z,91.1
2017-08-06T01:02:14.918Z,90.7
2017-08-06T01:02:58.568Z,90.9
2017-08-06T01:03:51.211Z,90.9
2017-08-06T01:04:38.100Z,91.1
2017-08-06T01:05:22.232Z,91.0
2017-08-06T01:06:08.510Z,91.7
2017-08-06T01:06:53.848Z,90.9
2017-08-06T01:07:38.398Z,90.4
2017-08-06T01:08:22.758Z,91.4
2017-08-06T01:09:06.525Z,90.7
2017-08-06T01:09:50.619Z,90.3
2017-08-06T01:10:32.770Z,90.2
2017-08-06T01:11:13.897Z,90.4
2017-08-06T01:11:54.816Z,90.6
2017-08-06T01:12:36.138Z,90.3
2017-08-06T01:13:17.356Z,90.3
2017-08-06T01:13:58.479Z,90.2
2017-08-06T01:14:39.601Z,89.9
2017-08-06T01:15:20.727Z,90.0
2017-08-06T01:16:01.951Z,90.6
2017-08-06T01:16:43.170Z,90.2
2017-08-06T01:17:24.294Z,90.2
2017-08-06T01:18:05.414Z,90.3
2017-08-06T01:18:46.632Z,90.5
2017-08-06T01:19:27.861Z,90.5
2017-08-06T01:20:09.071Z,90.2
2017-08-06T01:20:50.295Z,89.6
2017-08-06T01:21:31.411Z,90.1
2017-08-06T01:22:12.545Z,90.0
2017-08-06T01:22:53.767Z,89.3
2017-08-06T01:23:34.991Z,89.4
2017-08-06T01:24:16.108Z,90.1
2017-08-06T01:24:57.338Z,90.3
2017-08-06T01:25:38.477Z,90.6
2017-08-06T01:26:19.517Z,90.4
2017-08-06T01:27:00.844Z,90.5
2017-08-06T01:27:41.979Z,90.2
2017-08-06T01:28:23.197Z,90.2
2017-08-06T01:29:04.424Z,90.0
2017-08-06T01:29:45.446Z,90.5
2017-08-06T01:30:26.577Z,90.9
2017-08-06T01:31:07.804Z,90.0
2017-08-06T01:31:48.918Z,90.2
2017-08-06T01:32:30.135Z,90.7
2017-08-06T01:33:11.256Z,90.5
2017-08-06T01:33:52.477Z,90.8
2017-08-06T01:34:33.601Z,90.6
2017-08-06T01:35:14.717Z,90.4
2017-08-06T01:35:55.936Z,90.0
2017-08-06T01:36:37.161Z,90.2
2017-08-06T01:37:18.290Z,90.2
2017-08-06T01:37:59.305Z,90.5
2017-08-06T01:38:40.429Z,90.6
2017-08-06T01:39:21.648Z,90.3
2017-08-06T01:40:02.578Z,90.5
2017-08-06T01:40:43.694Z,90.3
2017-08-06T01:41:24.920Z,90.9
2017-08-06T01:42:06.047Z,90.5
2017-08-06T01:42:47.466Z,90.5
2017-08-06T01:43:28.695Z,90.6
2017-08-06T01:44:09.713Z,90.9
2017-08-06T01:44:50.938Z,90.6
2017-08-06T01:45:32.059Z,90.1
2017-08-06T01:46:13.286Z,90.5
2017-08-06T01:46:54.610Z,90.9
2017-08-06T01:47:35.834Z,90.3
2017-08-06T01:48:17.069Z,90.6
2017-08-06T01:48:58.190Z,90.6
2017-08-06T01:49:39.325Z,90.3
2017-08-06T01:50:20.540Z,90.5
2017-08-06T01:51:01.878Z,90.3
2017-08-06T01:51:43.092Z,91.1
2017-08-06T01:52:24.219Z,90.6
2017-08-06T01:53:05.147Z,91.0
2017-08-06T01:53:46.260Z,91.1
2017-08-06T01:54:27.388Z,90.9
2017-08-06T01:55:08.509Z,90.6
2017-08-06T01:55:49.640Z,91.7
2017-08-06T01:56:30.963Z,90.7
2017-08-06T01:57:11.987Z,90.9
2017-08-06T01:57:53.308Z,90.9
2017-08-06T01:58:34.634Z,91.5
2017-08-06T01:59:15.865Z,91.7
2017-08-06T01:59:56.884Z,91.4
2017-08-06T02:00:38.120Z,91.4
2017-08-06T02:01:19.444Z,91.1
2017-08-06T02:02:00.677Z,91.4
2017-08-06T02:02:41.910Z,91.5
2017-08-06T02:03:23.018Z,91.2
2017-08-06T02:04:04.150Z,90.7
2017-08-06T02:04:45.376Z,91.3
2017-08-06T02:05:26.395Z,91.4
2017-08-06T02:06:07.720Z,91.0
2017-08-06T02:06:48.751Z,91.7
2017-08-06T02:07:29.971Z,91.0
2017-08-06T02:08:11.184Z,91.8
2017-08-06T02:08:52.208Z,91.4
2017-08-06T02:09:33.323Z,91.8
2017-08-06T02:10:14.646Z,91.4
2017-08-06T02:10:55.973Z,91.2
2017-08-06T02:11:37.199Z,91.3
2017-08-06T02:12:18.224Z,91.7
2017-08-06T02:12:59.349Z,91.7
2017-08-06T02:13:40.482Z,91.4
2017-08-06T02:14:21.596Z,91.8
2017-08-06T02:15:02.821Z,91.6
2017-08-06T02:15:43.848Z,91.8
2017-08-06T02:16:25.168Z,91.4
2017-08-06T02:17:06.283Z,91.5
2017-08-06T02:17:47.202Z,91.4
2017-08-06T02:18:28.229Z,91.4
2017-08-06T02:19:09.248Z,91.6
2017-08-06T02:19:50.471Z,91.4
2017-08-06T02:20:31.789Z,91.4
2017-08-06T02:21:12.906Z,91.6
2017-08-06T02:21:54.130Z,91.5
2017-08-06T02:22:35.457Z,91.3
2017-08-06T02:23:16.684Z,91.7
2017-08-06T02:23:57.903Z,91.6
2017-08-06T02:24:39.026Z,91.5
2017-08-06T02:25:20.141Z,91.2
2017-08-06T02:26:01.576Z,91.5
2017-08-06T02:26:42.892Z,91.5
2017-08-06T02:27:23.910Z,91.5
2017-08-06T02:28:04.832Z,91.2
2017-08-06T02:28:45.945Z,91.7
2017-08-06T02:29:27.270Z,91.8
2017-08-06T02:30:08.695Z,91.5
2017-08-06T02:30:49.921Z,91.8
2017-08-06T02:31:31.046Z,91.7
2017-08-06T02:32:12.267Z,91.4
2017-08-06T02:32:53.593Z,91.4
2017-08-06T02:33:34.817Z,91.3
2017-08-06T02:34:16.044Z,91.5
2017-08-06T02:34:57.364Z,91.5
2017-08-06T02:35:38.590Z,91.6
2017-08-06T02:36:19.917Z,92.3
2017-08-06T02:37:01.037Z,92.4
2017-08-06T02:37:42.269Z,92.1
2017-08-06T02:38:23.393Z,92.3
2017-08-06T02:39:04.512Z,92.3
2017-08-06T02:39:45.732Z,91.8
2017-08-06T02:40:26.850Z,92.3
2017-08-06T02:41:07.983Z,92.2
2017-08-06T02:41:49.301Z,92.1
2017-08-06T02:42:30.726Z,92.2
2017-08-06T02:43:11.849Z,91.7
2017-08-06T02:43:52.980Z,92.4
2017-08-06T02:44:34.112Z,92.4
2017-08-06T02:45:15.123Z,92.2
2017-08-06T02:45:56.248Z,92.1
2017-08-06T02:46:37.382Z,92.4
2017-08-06T02:47:18.501Z,92.4
2017-08-06T02:47:59.620Z,92.4
2017-08-06T02:48:40.746Z,92.2
2017-08-06T02:49:21.863Z,92.2
2017-08-06T02:50:02.895Z,91.7
2017-08-06T02:50:44.116Z,92.4
2017-08-06T02:51:25.143Z,92.3
2017-08-06T02:52:06.170Z,92.2
2017-08-06T02:52:47.491Z,92.2
2017-08-06T02:53:28.615Z,92.4
2017-08-06T02:54:09.839Z,92.3
2017-08-06T02:54:51.066Z,92.4
2017-08-06T02:55:32.097Z,92.4
2017-08-06T02:56:13.227Z,92.4
2017-08-06T02:56:54.556Z,92.5
2017-08-06T02:57:35.681Z,92.4
2017-08-06T02:58:16.909Z,93.0
2017-08-06T02:58:58.141Z,92.7
2017-08-06T02:59:39.268Z,92.8
2017-08-06T03:00:20.401Z,92.5
2017-08-06T03:01:01.531Z,92.5
2017-08-06T03:01:42.965Z,92.7
2017-08-06T03:02:24.188Z,93.0
2017-08-06T03:03:05.410Z,92.8
2017-08-06T03:03:46.438Z,92.8
2017-08-06T03:04:27.584Z,92.7
2017-08-06T03:05:08.914Z,92.9
2017-08-06T03:05:50.219Z,92.7
2017-08-06T03:06:31.358Z,92.9
2017-08-06T03:07:12.591Z,92.4
2017-08-06T03:07:53.824Z,92.4
2017-08-06T03:08:34.946Z,92.8
2017-08-06T03:09:16.068Z,93.1
2017-08-06T03:09:57.116Z,93.0
2017-08-06T03:10:38.546Z,92.8
2017-08-06T03:11:19.679Z,92.8
2017-08-06T03:12:00.904Z,92.7
2017-08-06T03:12:42.131Z,92.9
2017-08-06T03:13:23.261Z,93.1
2017-08-06T03:14:04.481Z,92.4
2017-08-06T03:14:45.617Z,92.4
2017-08-06T03:15:26.846Z,92.2
2017-08-06T03:16:08.073Z,92.3
2017-08-06T03:16:49.202Z,92.4
2017-08-06T03:17:30.540Z,92.9
2017-08-06T03:18:11.764Z,93.0
2017-08-06T03:18:52.889Z,92.6
2017-08-06T03:19:34.122Z,92.8
2017-08-06T03:20:15.143Z,92.9
2017-08-06T03:20:56.483Z,92.7
2017-08-06T03:21:37.721Z,92.5
2017-08-06T03:22:18.850Z,92.7
2017-08-06T03:23:00.081Z,93.0
2017-08-06T03:23:41.465Z,92.9
2017-08-06T03:24:22.692Z,92.9
2017-08-06T03:25:04.324Z,92.7
2017-08-06T03:25:45.352Z,92.5
2017-08-06T03:26:26.373Z,92.6
2017-08-06T03:27:07.606Z,92.8
2017-08-06T03:27:48.835Z,93.1
2017-08-06T03:28:29.966Z,92.7
2017-08-06T03:29:11.194Z,92.7
2017-08-06T03:29:52.428Z,92.6
2017-08-06T03:30:33.555Z,92.6
2017-08-06T03:31:14.682Z,92.9
2017-08-06T03:31:55.617Z,92.7
2017-08-06T03:32:36.847Z,92.7
2017-08-06T03:33:17.988Z,92.7
2017-08-06T03:33:59.209Z,92.4
2017-08-06T03:34:40.343Z,92.9
2017-08-06T03:35:21.585Z,92.6
2017-08-06T03:36:02.802Z,92.6
2017-08-06T03:36:43.931Z,92.8
2017-08-06T03:37:25.063Z,93.0
2017-08-06T03:38:06.293Z,92.7
2017-08-06T03:38:47.522Z,92.9
2017-08-06T03:39:28.753Z,92.7
2017-08-06T03:40:09.984Z,92.5
2017-08-06T03:40:51.204Z,93.1
2017-08-06T03:41:32.543Z,92.6
2017-08-06T03:42:13.666Z,92.9
2017-08-06T03:42:54.894Z,93.1
2017-08-06T03:43:36.143Z,92.6
2017-08-06T03:44:17.470Z,93.1
2017-08-06T03:44:58.799Z,92.7
2017-08-06T03:45:39.923Z,92.6
2017-08-06T03:46:21.150Z,92.5
2017-08-06T03:47:02.380Z,92.8
2017-08-06T03:47:43.516Z,92.5
2017-08-06T03:48:24.845Z,92.5
2017-08-06T03:49:05.871Z,92.8
2017-08-06T03:49:47.006Z,92.7
2017-08-06T03:50:28.330Z,92.8
2017-08-06T03:51:09.461Z,92.8
2017-08-06T03:51:50.589Z,92.5
2017-08-06T03:52:31.619Z,92.8
2017-08-06T03:53:12.747Z,92.6
2017-08-06T03:53:53.868Z,92.7
2017-08-06T03:54:35.108Z,92.6
2017-08-06T03:55:16.229Z,92.6
2017-08-06T03:55:57.366Z,92.6
2017-08-06T03:56:38.891Z,92.8
2017-08-06T03:57:19.920Z,92.7
2017-08-06T03:58:01.059Z,92.5
2017-08-06T03:58:42.196Z,92.4
2017-08-06T03:59:23.424Z,93.0
2017-08-06T04:00:04.650Z,92.6
2017-08-06T04:00:45.884Z,92.5
2017-08-06T04:01:26.915Z,93.0
2017-08-06T04:02:08.053Z,92.5
2017-08-06T04:02:49.189Z,92.5
2017-08-06T04:03:30.414Z,92.9
2017-08-06T04:04:11.555Z,92.7
2017-08-06T04:04:52.795Z,92.7
2017-08-06T04:05:34.130Z,92.4
2017-08-06T04:06:15.363Z,92.7
2017-08-06T04:06:56.598Z,92.4
2017-08-06T04:07:37.741Z,92.9
2017-08-06T04:08:19.178Z,93.1
2017-08-06T04:09:00.321Z,92.8
2017-08-06T04:09:41.655Z,92.9
2017-08-06T04:10:22.898Z,92.7
2017-08-06T04:11:04.133Z,92.6
2017-08-06T04:11:45.371Z,93.0
2017-08-06T04:12:26.607Z,93.1
2017-08-06T04:13:07.850Z,92.4
2017-08-06T04:13:49.189Z,92.7
2017-08-06T04:14:30.417Z,92.8
2017-08-06T04:15:11.550Z,92.4
2017-08-06T04:15:52.585Z,92.8
2017-08-06T04:16:33.725Z,92.4
2017-08-06T04:17:14.858Z,92.9
2017-08-06T04:17:56.087Z,92.8
2017-08-06T04:18:37.325Z,92.6
2017-08-06T04:19:18.457Z,92.7
2017-08-06T04:19:59.694Z,92.9
2017-08-06T04:20:40.830Z,92.6
2017-08-06T04:21:21.961Z,92.7
2017-08-06T04:22:03.201Z,92.8
2017-08-06T04:22:44.429Z,93.1
2017-08-06T04:23:25.668Z,92.6
2017-08-06T04:24:07.101Z,92.7
2017-08-06T04:24:48.342Z,92.6
2017-08-06T04:25:29.571Z,92.6
2017-08-06T04:26:10.707Z,93.0
2017-08-06T04:26:51.939Z,92.9
2017-08-06T04:27:33.274Z,92.9
2017-08-06T04:28:14.712Z,92.9
2017-08-06T04:28:55.945Z,92.7
2017-08-06T04:29:37.183Z,92.9
2017-08-06T04:30:18.416Z,92.7
2017-08-06T04:30:59.546Z,92.7
2017-08-06T04:31:40.778Z,92.5
2017-08-06T04:32:21.817Z,92.6
2017-08-06T04:33:03.060Z,92.8
2017-08-06T04:33:44.397Z,92.6
2017-08-06T04:34:25.535Z,92.7
2017-08-06T04:35:06.864Z,92.6
2017-08-06T04:35:48.002Z,92.8
2017-08-06T04:36:29.338Z,92.5
2017-08-06T04:37:10.467Z,92.7
2017-08-06T04:37:51.607Z,92.7
2017-08-06T04:38:32.845Z,92.8
2017-08-06T04:39:13.989Z,92.7
2017-08-06T04:39:55.125Z,92.9
2017-08-06T04:40:36.264Z,92.8
2017-08-06T04:41:17.701Z,92.8
2017-08-06T04:41:59.243Z,92.9
2017-08-06T04:42:40.287Z,92.9
2017-08-06T04:43:21.422Z,92.7
2017-08-06T04:44:02.559Z,92.9
2017-08-06T04:44:43.798Z,92.5
2017-08-06T04:45:25.027Z,92.9
2017-08-06T04:46:06.362Z,92.3
2017-08-06T04:46:47.394Z,92.3
2017-08-06T04:47:28.536Z,92.1
2017-08-06T04:48:09.670Z,92.7
2017-08-06T04:48:50.816Z,93.1
2017-08-06T04:49:32.044Z,92.5
2017-08-06T04:50:13.179Z,92.7
2017-08-06T04:50:54.211Z,92.2
2017-08-06T04:51:35.644Z,92.3
2017-08-06T04:52:16.780Z,92.8
2017-08-06T04:52:57.920Z,92.3
2017-08-06T04:53:39.163Z,92.3
2017-08-06T04:54:20.394Z,92.4
2017-08-06T04:55:02.029Z,92.4
2017-08-06T04:55:43.167Z,93.0
2017-08-06T04:56:24.308Z,92.1
2017-08-06T04:57:05.548Z,92.4
2017-08-06T04:57:46.877Z,92.5
2017-08-06T04:58:28.116Z,92.5
2017-08-06T04:59:09.247Z,92.4
2017-08-06T04:59:50.390Z,92.6
2017-08-06T05:00:31.733Z,92.4
2017-08-06T05:01:12.873Z,92.4
2017-08-06T05:01:54.005Z,92.5
2017-08-06T05:02:35.249Z,92.3
2017-08-06T05:03:16.379Z,92.9
2017-08-06T05:03:57.720Z,92.5
2017-08-06T05:04:38.979Z,92.3
2017-08-06T05:05:20.233Z,92.3
2017-08-06T05:06:01.368Z,92.4
2017-08-06T05:06:42.617Z,92.3
2017-08-06T05:07:23.747Z,92.4
2017-08-06T05:08:04.997Z,92.3
2017-08-06T05:08:46.329Z,92.3
2017-08-06T05:09:27.465Z,92.4
2017-08-06T05:10:08.707Z,92.3
2017-08-06T05:10:49.835Z,92.4
2017-08-06T05:11:31.075Z,92.3
2017-08-06T05:12:12.205Z,92.4
2017-08-06T05:12:53.440Z,92.2
2017-08-06T05:13:34.689Z,91.7
2017-08-06T05:14:15.824Z,92.2
2017-08-06T05:14:57.057Z,92.1
2017-08-06T05:15:38.202Z,92.1
2017-08-06T05:16:19.341Z,92.1
2017-08-06T05:17:00.777Z,92.3
2017-08-06T05:17:42.118Z,92.1
2017-08-06T05:18:23.361Z,92.1
2017-08-06T05:19:04.599Z,92.2
2017-08-06T05:19:45.832Z,92.3
2017-08-06T05:20:27.127Z,91.9
2017-08-06T05:21:08.579Z,91.2
2017-08-06T05:21:50.009Z,91.2
2017-08-06T05:22:31.142Z,91.8
2017-08-06T05:23:12.475Z,91.5
2017-08-06T05:23:53.614Z,91.7
2017-08-06T05:24:34.857Z,91.5
2017-08-06T05:25:16.086Z,91.4
2017-08-06T05:25:57.225Z,92.0
2017-08-06T05:26:38.451Z,91.6
2017-08-06T05:27:19.699Z,91.4
2017-08-06T05:28:00.837Z,91.4
2017-08-06T05:28:41.965Z,91.4
2017-08-06T05:29:23.101Z,91.6
2017-08-06T05:30:04.441Z,91.4
2017-08-06T05:30:45.594Z,91.5
2017-08-06T05:31:26.917Z,91.5
2017-08-06T05:32:08.058Z,91.7
2017-08-06T05:32:49.090Z,91.6
2017-08-06T05:33:30.330Z,91.6
2017-08-06T05:34:11.478Z,91.7
2017-08-06T05:34:52.809Z,91.1
2017-08-06T05:35:34.044Z,91.6
2017-08-06T05:36:15.280Z,91.9
2017-08-06T05:36:56.419Z,91.1
2017-08-06T05:37:37.555Z,91.5
2017-08-06T05:38:18.701Z,91.5
2017-08-06T05:38:59.842Z,91.3
2017-08-06T05:39:40.976Z,91.5
2017-08-06T05:40:22.211Z,91.4
2017-08-06T05:41:03.448Z,91.2
2017-08-06T05:41:44.688Z,91.1
2017-08-06T05:42:25.827Z,90.7
2017-08-06T05:43:07.171Z,90.9
2017-08-06T05:43:48.406Z,90.9
2017-08-06T05:44:29.644Z,91.2
2017-08-06T05:45:10.684Z,90.9
2017-08-06T05:45:52.018Z,90.8
2017-08-06T05:46:33.159Z,90.9
2017-08-06T05:47:14.291Z,91.1
2017-08-06T05:47:55.520Z,91.0
2017-08-06T05:48:37.165Z,90.7
2017-08-06T05:49:18.197Z,90.2
2017-08-06T05:49:59.573Z,90.6
2017-08-06T05:50:40.684Z,90.7
2017-08-06T05:51:21.923Z,90.6
2017-08-06T05:52:03.050Z,90.4
2017-08-06T05:52:44.187Z,90.1
2017-08-06T05:53:25.325Z,90.1
2017-08-06T05:54:06.564Z,90.1
2017-08-06T05:54:47.710Z,90.1
2017-08-06T05:55:29.041Z,90.1
2017-08-06T05:56:10.289Z,89.6
2017-08-06T05:56:51.622Z,90.3
2017-08-06T05:57:32.858Z,89.6
2017-08-06T05:58:14.006Z,89.2
2017-08-06T05:58:55.147Z,90.0
2017-08-06T05:59:36.383Z,89.6
2017-08-06T06:00:17.713Z,90.3
2017-08-06T06:00:58.865Z,90.0
2017-08-06T06:01:40.212Z,89.9
2017-08-06T06:02:21.455Z,89.2
2017-08-06T06:03:02.693Z,89.5
2017-08-06T06:03:43.826Z,89.8
2017-08-06T06:04:24.970Z,89.8
2017-08-06T06:05:06.201Z,89.0
2017-08-06T06:05:47.433Z,89.4
2017-08-06T06:06:28.571Z,88.7
2017-08-06T06:07:09.707Z,89.0
2017-08-06T06:07:50.852Z,88.8
2017-08-06T06:08:32.083Z,88.5
2017-08-06T06:09:13.128Z,88.4
2017-08-06T06:09:54.472Z,88.8
2017-08-06T06:10:35.816Z,89.1
2017-08-06T06:11:17.063Z,89.0
2017-08-06T06:11:58.191Z,89.3
2017-08-06T06:12:39.434Z,89.0
2017-08-06T06:13:20.571Z,88.7
2017-08-06T06:14:01.816Z,88.9
2017-08-06T06:14:42.952Z,89.2
2017-08-06T06:15:24.195Z,88.3
2017-08-06T06:16:05.328Z,88.2
2017-08-06T06:16:46.578Z,87.9
2017-08-06T06:17:27.718Z,87.9
2017-08-06T06:18:09.051Z,86.8
2017-08-06T06:18:50.193Z,86.4
2017-08-06T06:19:31.332Z,85.0
2017-08-06T06:20:12.574Z,83.8
2017-08-06T06:20:53.925Z,82.1
2017-08-06T06:21:35.366Z,80.8
2017-08-06T06:22:16.608Z,81.1
2017-08-06T06:22:57.946Z,77.8
2017-08-06T06:23:39.193Z,77.1
2017-08-06T06:24:20.433Z,74.4
2017-08-06T06:25:01.577Z,70.8
2017-08-06T06:25:42.719Z,67.4
2017-08-06T06:26:23.968Z,68.5
2017-08-06T06:27:05.311Z,66.9
2017-08-06T06:27:46.454Z,67.4
2017-08-06T06:28:27.806Z,66.9
2017-08-06T06:29:08.944Z,66.6
2017-08-06T06:29:50.093Z,65.5
2017-08-06T06:30:31.339Z,63.7
2017-08-06T06:31:12.483Z,61.8
2017-08-06T06:31:53.724Z,65.3
2017-08-06T06:32:34.962Z,62.4
2017-08-06T06:33:16.221Z,61.6
2017-08-06T06:33:57.362Z,63.0
2017-08-06T06:34:38.506Z,59.9
2017-08-06T06:35:19.645Z,57.5
2017-08-06T06:36:00.893Z,57.8
2017-08-06T06:36:42.037Z,58.7
2017-08-06T06:37:23.191Z,58.6
2017-08-06T06:38:04.444Z,57.9
2017-08-06T06:38:45.583Z,58.4
2017-08-06T06:39:26.725Z,60.3
2017-08-06T06:40:08.376Z,59.9
2017-08-06T06:40:49.536Z,60.2
2017-08-06T06:41:30.670Z,59.0
2017-08-06T06:42:11.753Z,59.1
2017-08-06T06:42:52.898Z,54.2
2017-08-06T06:43:34.239Z,51.6
2017-08-06T06:44:15.386Z,52.1
2017-08-06T06:44:56.619Z,54.4
2017-08-06T06:45:38.065Z,55.1
2017-08-06T06:46:19.217Z,53.9
2017-08-06T06:47:00.490Z,48.1
2017-08-06T06:47:41.649Z,48.0
2017-08-06T06:48:23.081Z,49.5
2017-08-06T06:49:04.229Z,50.7
2017-08-06T06:49:45.381Z,50.9
2017-08-06T06:50:26.619Z,51.0
2017-08-06T06:51:07.860Z,49.7
2017-08-06T06:51:49.096Z,50.7
2017-08-06T06:52:30.246Z,50.3
2017-08-06T06:53:11.892Z,55.5
2017-08-06T06:53:53.138Z,52.9
2017-08-06T06:54:34.472Z,50.3
2017-08-06T06:55:15.714Z,49.5
2017-08-06T06:55:56.857Z,48.9
2017-08-06T06:56:38.206Z,47.2
2017-08-06T06:57:19.571Z,46.6
2017-08-06T06:58:01.011Z,47.8
2017-08-06T06:58:42.258Z,47.3
2017-08-06T06:59:23.502Z,47.9
2017-08-06T07:00:04.746Z,46.3
2017-08-06T07:00:45.903Z,45.9
2017-08-06T07:01:27.136Z,46.3
2017-08-06T07:02:08.286Z,48.5
2017-08-06T07:02:49.723Z,49.4
2017-08-06T07:03:30.869Z,45.8
2017-08-06T07:04:12.005Z,45.4
2017-08-06T07:04:53.249Z,44.9
2017-08-06T07:05:34.396Z,48.5
2017-08-06T07:06:15.739Z,47.4
2017-08-06T07:06:56.981Z,43.3
2017-08-06T07:07:38.222Z,45.5
2017-08-06T07:08:19.579Z,46.6
2017-08-06T07:09:01.016Z,47.3
2017-08-06T07:09:42.354Z,45.3
2017-08-06T07:10:23.503Z,45.2
2017-08-06T07:11:04.744Z,45.2
2017-08-06T07:11:45.993Z,47.3
2017-08-06T07:12:27.331Z,47.4
2017-08-06T07:13:08.482Z,47.4
2017-08-06T07:13:49.618Z,47.5
2017-08-06T07:14:30.970Z,47.5
2017-08-06T07:15:12.408Z,48.0
2017-08-06T07:15:53.644Z,51.4
2017-08-06T07:16:34.690Z,50.1
2017-08-06T07:17:15.933Z,50.1
2017-08-06T07:17:57.073Z,50.0
2017-08-06T07:18:38.412Z,50.4
2017-08-06T07:19:19.649Z,51.2
2017-08-06T07:20:00.897Z,53.1
2017-08-06T07:20:42.337Z,51.0
2017-08-06T07:21:23.490Z,54.8
2017-08-06T07:22:04.526Z,56.1
2017-08-06T07:22:45.671Z,54.9
2017-08-06T07:23:26.916Z,50.3
2017-08-06T07:24:08.156Z,49.9
2017-08-06T07:24:49.292Z,49.9
2017-08-06T07:25:30.431Z,50.7
2017-08-06T07:26:11.687Z,51.4
2017-08-06T07:26:53.026Z,52.8
2017-08-06T07:27:34.371Z,51.5
2017-08-06T07:28:15.614Z,54.4
2017-08-06T07:28:56.959Z,52.9
2017-08-06T07:29:38.103Z,51.5
2017-08-06T07:30:19.347Z,50.5
2017-08-06T07:31:00.986Z,51.5
2017-08-06T07:31:42.224Z,50.3
2017-08-06T07:32:23.270Z,48.5
2017-08-06T07:33:04.514Z,51.1
2017-08-06T07:33:45.957Z,48.7
2017-08-06T07:34:27.300Z,50.9
2017-08-06T07:35:08.536Z,52.2
2017-08-06T07:35:49.587Z,53.4
2017-08-06T07:36:30.827Z,51.5
2017-08-06T07:37:12.075Z,51.3
2017-08-06T07:37:53.321Z,49.1
2017-08-06T07:38:34.475Z,49.6
2017-08-06T07:39:15.718Z,50.5
2017-08-06T07:39:56.857Z,51.1
2017-08-06T07:40:38.009Z,49.4
2017-08-06T07:41:19.155Z,50.9
2017-08-06T07:42:00.509Z,51.0
2017-08-06T07:42:42.058Z,53.6
2017-08-06T07:43:23.301Z,51.1
2017-08-06T07:44:04.463Z,50.1
2017-08-06T07:44:45.700Z,51.6
2017-08-06T07:45:26.845Z,50.0
2017-08-06T07:46:07.986Z,49.0
2017-08-06T07:46:49.145Z,47.7
2017-08-06T07:47:30.389Z,49.6
2017-08-06T07:48:11.536Z,48.8
2017-08-06T07:48:52.784Z,49.8
2017-08-06T07:49:33.922Z,54.5
2017-08-06T07:50:15.073Z,52.2
2017-08-06T07:50:56.419Z,49.4
2017-08-06T07:51:37.763Z,49.6
2017-08-06T07:52:19.008Z,49.1
2017-08-06T07:53:00.155Z,49.0
2017-08-06T07:53:41.492Z,48.7
2017-08-06T07:54:22.652Z,47.9
2017-08-06T07:55:03.995Z,47.6
2017-08-06T07:55:45.137Z,49.0
2017-08-06T07:56:26.386Z,49.5
2017-08-06T07:57:07.532Z,53.7
2017-08-06T07:57:48.783Z,47.5
2017-08-06T07:58:30.029Z,46.7
2017-08-06T07:59:11.081Z,45.5
2017-08-06T07:59:52.331Z,46.7
2017-08-06T08:00:33.467Z,47.4
2017-08-06T08:01:14.615Z,47.3
2017-08-06T08:01:55.867Z,47.6
2017-08-06T08:02:37.319Z,49.0
2017-08-06T08:03:18.369Z,48.7
2017-08-06T08:03:59.515Z,49.0
2017-08-06T08:04:40.730Z,49.3
2017-08-06T08:05:21.775Z,49.8
2017-08-06T08:06:03.129Z,49.4
2017-08-06T08:06:44.474Z,47.7
2017-08-06T08:07:25.823Z,49.8
2017-08-06T08:08:07.083Z,48.9
2017-08-06T08:08:48.328Z,50.0
2017-08-06T08:09:29.480Z,46.6
2017-08-06T08:10:10.617Z,50.8
2017-08-06T08:10:51.870Z,49.5
2017-08-06T08:11:33.017Z,48.3
2017-08-06T08:12:14.269Z,49.0
2017-08-06T08:12:55.421Z,47.6
2017-08-06T08:13:36.669Z,45.5
2017-08-06T08:14:17.835Z,44.6
2017-08-06T08:14:59.077Z,45.1
2017-08-06T08:15:40.225Z,46.7
2017-08-06T08:16:21.467Z,44.1
2017-08-06T08:17:02.611Z,43.0
2017-08-06T08:17:43.856Z,45.2
2017-08-06T08:18:25.000Z,43.7
2017-08-06T08:19:06.146Z,44.8
2017-08-06T08:19:47.296Z,45.5
2017-08-06T08:20:28.439Z,44.9
2017-08-06T08:21:09.682Z,46.6
2017-08-06T08:21:50.732Z,44.8
2017-08-06T08:22:32.085Z,45.9
2017-08-06T08:23:13.225Z,44.9
2017-08-06T08:23:54.577Z,44.5
2017-08-06T08:24:35.721Z,44.7
2017-08-06T08:25:16.968Z,45.4
2017-08-06T08:25:58.315Z,43.8
2017-08-06T08:26:39.685Z,42.3
2017-08-06T08:27:21.151Z,42.2
2017-08-06T08:28:02.310Z,42.6
2017-08-06T08:28:43.549Z,44.7
2017-08-06T08:29:24.689Z,43.3
2017-08-06T08:30:05.943Z,45.2
2017-08-06T08:30:47.389Z,45.3
2017-08-06T08:31:28.539Z,41.9
2017-08-06T08:32:09.688Z,43.0
2017-08-06T08:32:50.861Z,41.8
2017-08-06T08:33:32.108Z,41.1
2017-08-06T08:34:13.349Z,43.2
2017-08-06T08:34:54.703Z,43.5
2017-08-06T08:35:35.851Z,44.2
2017-08-06T08:36:17.099Z,43.2
2017-08-06T08:36:58.351Z,44.1
2017-08-06T08:37:39.703Z,45.9
2017-08-06T08:38:20.968Z,47.0
2017-08-06T08:39:02.223Z,45.6
2017-08-06T08:39:43.478Z,44.7
2017-08-06T08:40:24.835Z,42.3
2017-08-06T08:41:06.082Z,42.7
2017-08-06T08:41:47.236Z,44.3
2017-08-06T08:42:28.389Z,42.7
2017-08-06T08:43:09.644Z,42.9
2017-08-06T08:43:50.797Z,42.8
2017-08-06T08:44:31.948Z,40.2
2017-08-06T08:45:13.201Z,38.6
2017-08-06T08:45:54.249Z,39.5
2017-08-06T08:46:35.396Z,39.7
2017-08-06T08:47:16.638Z,39.4
2017-08-06T08:47:57.790Z,40.6
2017-08-06T08:48:38.937Z,40.8
2017-08-06T08:49:20.193Z,38.7
2017-08-06T08:50:01.433Z,38.5
2017-08-06T08:50:42.685Z,40.1
2017-08-06T08:51:23.845Z,41.1
2017-08-06T08:52:05.094Z,42.9
2017-08-06T08:52:46.252Z,45.6
2017-08-06T08:53:27.485Z,45.9
2017-08-06T08:54:08.740Z,45.2
2017-08-06T08:54:49.883Z,46.0
2017-08-06T08:55:31.027Z,48.7
2017-08-06T08:56:12.178Z,47.2
2017-08-06T08:56:53.328Z,44.5
2017-08-06T08:57:34.483Z,41.0
2017-08-06T08:58:15.822Z,40.1
2017-08-06T08:58:56.968Z,38.6
2017-08-06T08:59:38.121Z,37.9
2017-08-06T09:00:19.371Z,36.4
2017-08-06T09:01:00.528Z,33.5
2017-08-06T09:01:41.774Z,31.7
2017-08-06T09:02:22.950Z,31.7
2017-08-06T09:03:04.190Z,29.7
2017-08-06T09:03:45.345Z,29.0
2017-08-06T09:04:26.584Z,29.5
2017-08-06T09:05:07.839Z,30.7
2017-08-06T09:05:49.088Z,31.9
2017-08-06T09:06:30.350Z,34.2
2017-08-06T09:07:11.486Z,37.1
2017-08-06T09:07:52.627Z,38.5
2017-08-06T09:08:33.780Z,40.4
2017-08-06T09:09:14.929Z,40.7
2017-08-06T09:09:56.079Z,41.2
2017-08-06T09:10:37.233Z,38.6